<<    Januar 2013    >>
Datum    Temp.       Tempmin      Tempmax    Taup.       Taup.min      Taup.max    Feuchte    Feuchtemin    Feuchtemax    Druck    Druckmin    Druckmax    Regen    Wind    Benmax  
  01.01.2013  7,2    3,3    22:26    9,9    00:00  4,9    2,3    22:26    8,0    13:41  86,2    69    00:00    96    13:03  1007,5    1003    03:56    1017    23:29  3,0  3,4  21,2  
  02.01.2013  6,0    4,0    00:04    8,5    12:53  3,8    2,6    01:36    5,7    12:28  85,6    76    13:52    94    00:00  1024,0    1016    00:00    1030    21:57  0,0  2,9  16,6  
  03.01.2013  9,2    6,8    00:00    10,7    23:59  8,3    3,9    00:00    10,4    23:59  94,0    80    01:42    98    23:59  1031,3    1028    03:11    1036    23:59  0,9  3,4  15,8  
  04.01.2013  9,9    8,4    23:59    10,8    00:07  9,6    8,1    23:59    10,5    00:07  98,0    98    00:00    98    00:00  1035,2    1034    05:41    1036    00:00  0,9  4,2  17,6  
  05.01.2013  8,3    7,8    23:39    8,9    12:20  7,8    7,4    16:58    8,5    11:49  97,1    93    15:14    98    00:00  1034,1    1033    06:27    1035    00:00  0,0  2,9  12,6  
  06.01.2013  8,5    7,3    02:31    9,4    14:43  8,2    7,0    02:31    9,1    14:43  97,8    96    11:00    98    00:00  1031,2    1030    12:56    1034    00:00  0,0  2,8  14,0  
  07.01.2013  8,7    7,5    23:52    10,1    13:09  7,3    5,2    23:41    8,9    12:02  91,2    78    15:00    98    00:00  1028,8    1027    13:11    1031    00:00  0,0  1,0  9,4  
  08.01.2013  7,2    5,4    07:37    8,2    14:03  5,1    4,3    04:31    6,3    11:55  86,9    81    14:47    97    09:40  1026,4    1025    12:25    1028    00:00  0,0  2,3  13,7  
  09.01.2013  6,2    5,5    18:53    7,5    00:00  4,8    3,6    07:44    5,7    15:09  91,5    82    00:00    98    23:59  1021,4    1018    18:10    1026    00:00  4,9  1,2  14,0  
  10.01.2013  5,5    4,8    23:59    7,0    14:22  4,1    2,7    21:18    5,6    00:00  91,2    81    15:09    98    00:00  1014,7    1012    14:39    1019    00:40  0,0  2,8  17,6  
  11.01.2013  -0,1    -3,9    23:59    4,6    00:00  -2,8    -5,4    16:47    3,4    00:00  83,4    58    13:38    98    02:10  1018,5    1013    00:39    1022    22:09  0,9  1,1  10,4  
  12.01.2013  -1,9    -4,7    08:20    1,5    13:51  -6,3    -9,0    20:31    -3,7    11:02  74,2    52    15:39    94    03:54  1019,2    1017    13:54    1022    00:00  0,0  1,5  10,4  
  13.01.2013  -1,5    -3,7    05:02    1,1    16:08  -7,9    -9,0    15:51    -6,5    23:42  62,1    47    15:51    72    23:59  1018,8    1017    00:39    1021    11:40  0,0  1,9  13,0  
  14.01.2013  -2,4    -6,1    19:52    0,1    12:36  -5,4    -8,5    18:42    -2,5    10:24  80,2    69    14:47    90    08:29  1016,3    1012    23:59    1019    00:00  0,0  1,1  9,7  
  15.01.2013  -1,5    -3,8    00:00    0,8    12:30  -3,6    -7,2    01:55    -1,4    21:09  86,0    74    03:03    97    23:59  1007,0    1005    12:23    1012    00:00  0,0  2,4  16,9  
  16.01.2013  -2,7    -3,9    07:46    -1,1    13:37  -3,5    -4,3    07:46    -2,5    00:00  94,1    88    13:44    98    02:21  1011,0    1007    00:00    1017    23:24  0,0  1,9  9,7  
  17.01.2013  -2,6    -3,6    08:05    -1,8    13:38  -4,0    -5,1    08:05    -3,2    22:14  90,3    83    13:53    95    22:14  1018,2    1016    00:00    1019    06:08  0,0  2,8  12,6  
  18.01.2013  -1,7    -4,3    09:08    1,0    12:26  -4,1    -5,8    17:04    -0,7    11:16  84,5    65    14:46    98    02:28  1011,4    1004    23:22    1019    00:00  0,0  1,6  11,9  
  19.01.2013  -2,2    -4,6    23:50    -0,8    13:20  -7,5    -9,8    23:50    -5,3    00:14  67,1    59    13:26    74    05:36  1001,1    999    14:52    1004    00:00  0,0  3,8  15,1  
  20.01.2013  -2,7    -5,5    04:22    -0,5    15:55  -5,9    -9,9    01:16    -2,3    23:59  78,6    68    00:00    89    23:57  997,9    995    14:07    1001    00:07  0,0  3,3  20,2  
  21.01.2013  0,1    -1,0    06:45    1,4    12:23  -1,0    -2,4    00:02    0,6    11:37  92,8    83    14:19    98    01:38  1000,2    998    00:00    1004    23:37  0,0  1,0  7,6  
  22.01.2013  0,2    -1,1    07:56    2,3    14:56  -2,1    -3,2    17:32    -1,0    10:00  84,0    73    13:45    92    08:37  1006,9    1003    03:37    1011    23:37  0,0  0,4  7,6  
  23.01.2013  -0,1    -2,3    23:51    1,9    12:57  -2,7    -4,9    23:51    -1,2    10:20  82,3    77    13:43    88    08:49  1011,1    1009    04:21    1013    23:59  0,0  0,8  6,1  
  24.01.2013  -2,2    -4,9    08:16    0,2    14:04  -5,6    -8,1    08:16    -4,3    22:32  78,0    66    14:20    87    04:01  1016,5    1011    01:07    1023    21:36  0,0  2,2  12,2  
  25.01.2013  -1,4    -2,2    22:04    0,2    12:15  -5,5    -6,4    22:04    -3,5    12:15  73,6    66    15:00    81    00:09  1020,9    1015    22:51    1023    08:07  0,0  2,5  17,3  
  26.01.2013  -1,4    -3,4    07:52    0,7    14:49  -4,8    -6,8    07:52    0,0    23:30  78,2    60    14:23    96    22:05  1014,4    1012    07:51    1016    00:00  0,0  4,9  19,8  
  27.01.2013  2,1    0,1    00:26    3,8    16:48  1,0    -1,3    02:05    3,2    16:48  92,3    81    08:53    98    20:51  1007,4    1003    13:06    1015    00:00  7,6  3,5  19,4  
  28.01.2013  3,5    0,5    04:07    6,8    14:32  2,0    0,2    04:07    5,5    13:24  90,4    76    20:36    98    00:00  1013,4    1008    00:00    1017    17:05  0,0  2,4  16,6  
  29.01.2013  9,9    6,1    00:00    12,4    21:08  8,4    3,4    00:00    10,8    17:14  90,1    76    05:13    98    08:03  1009,9    1009    02:22    1011    00:00  6,6  4,2  24,5  
  30.01.2013  12,1    8,7    23:14    15,5    10:27  8,2    3,1    22:11    11,7    14:07  77,1    66    20:41    96    14:07  1008,8    1005    08:22    1016    22:35  2,1  6,7  34,6  
  31.01.2013  7,9    5,4    16:43    10,4    12:24  3,5    -0,8    11:41    6,7    18:40  74,5    49    12:26    98    17:27  1014,6    1009    16:05    1018    01:05  8,5  6,4  29,2  
 
  Gesamt  2,8  -6,1            15,5            0,5  -9,9            11,7            84,9  47            98            1016,1  995            1036            35,2  2,7  34,6  
 
  Mittelwert  2,8  0,7            4,9            0,5  -1,7            2,7            84,9  73,2            93,8            1016,1  1012,7            1019,8            1,1  2,7  15,4  
  Minimum  -2,7  -6,1            -1,8            -7,9  -9,9            -6,5            62,1  47,0            72,0            997,9  995,0            1001,0            0,0  0,4  6,1  
  Maximum  12,1  8,7            15,5            9,6  8,1            11,7            98,0  98,0            98,0            1035,2  1034,0            1036,0            8,5  6,7  34,6  

  Heie Tage    Tmax >=30C     0  
  Sommertage    Tmax >=25C     0  
  Warme Tage    Tmax >=20C     0  
  Kalte Tage    Tmax  <10C     25  
  Frosttage    Tmin  <0C     16  
  Eistage    Tmax  <0C     4  
  Regentage > 0 mm    9  
  Regentage > 2 mm    6  
  Regentage > 10 mm    0  
  Regentage > 20 mm    0